Time;durP1;ratioP1;P1;durP2;ratioP2;P2;SDS_P1;SDS_P2;PMS_P1;PMS_P2;Temp;Humidity;BMP_temperature;BMP_pressure;BME280_temperature;BME280_humidity;BME280_pressure;Samples;Min_cycle;Max_cycle;Signal;HPM_P1;HPM_P2
2021/04/13 00:02:29;;;;;;;10.90;7.40;;;;;;;0.66;93.35;102545.75;5036950;28;20455;-85
2021/04/13 00:05:15;;;;;;;11.30;7.50;;;;;;;0.70;93.74;102549.19;5040237;28;20041;-80
2021/04/13 00:07:45;;;;;;;12.05;6.45;;;;;;;0.67;93.58;102543.09;5025172;28;20048;-79
2021/04/13 00:10:19;;;;;;;10.88;5.75;;;;;;;0.60;93.92;102552.13;5042312;28;20104;-85
2021/04/13 00:12:46;;;;;;;13.40;7.05;;;;;;;0.70;93.70;102550.03;5045484;28;20044;-83
2021/04/13 00:15:18;;;;;;;10.77;6.97;;;;;;;0.71;94.27;102546.47;5052551;28;20107;-83
2021/04/13 00:17:44;;;;;;;10.10;7.40;;;;;;;0.66;93.62;102543.13;5046907;28;20041;-80
2021/04/13 00:20:19;;;;;;;11.45;7.38;;;;;;;0.67;93.57;102536.94;5040473;28;20053;-82
2021/04/13 00:22:46;;;;;;;11.15;7.13;;;;;;;0.71;93.45;102549.09;5052492;28;20048;-80
2021/04/13 00:25:22;;;;;;;9.60;6.15;;;;;;;0.64;93.41;102547.63;5045248;28;20401;-83
2021/04/13 00:27:48;;;;;;;12.40;6.78;;;;;;;0.67;93.51;102551.00;5033245;28;20049;-82
2021/04/13 00:30:18;;;;;;;11.85;6.50;;;;;;;0.63;94.17;102552.06;5049315;28;20037;-82
2021/04/13 00:33:00;;;;;;;;;;;;;;;0.64;93.64;102558.19;5024171;28;20040;-86
2021/04/13 00:35:32;;;;;;;13.05;6.88;;;;;;;0.64;94.29;102552.91;5042434;28;19917;-83
2021/04/13 00:38:12;;;;;;;9.82;6.18;;;;;;;0.57;94.21;102560.19;5031690;28;20041;-85
2021/04/13 00:40:38;;;;;;;9.73;5.50;;;;;;;0.55;94.08;102554.13;5048669;28;20052;-83
2021/04/13 00:43:05;;;;;;;10.48;7.00;;;;;;;0.63;94.66;102557.34;5024491;28;20045;-85
2021/04/13 00:45:38;;;;;;;11.73;6.28;;;;;;;0.59;94.92;102554.84;5026681;28;20037;-84
2021/04/13 00:48:06;;;;;;;10.25;6.18;;;;;;;0.61;94.93;102551.25;5018919;28;20041;-86
2021/04/13 00:50:36;;;;;;;9.68;6.13;;;;;;;0.68;94.37;102554.50;5018261;28;20041;-87
2021/04/13 00:53:07;;;;;;;11.30;6.65;;;;;;;0.68;94.87;102559.78;5030937;28;20488;-85
2021/04/13 00:55:47;;;;;;;9.40;6.32;;;;;;;0.79;94.85;102559.41;5032903;28;20041;-84
2021/04/13 00:58:20;;;;;;;13.25;6.50;;;;;;;0.72;94.71;102560.53;5049486;28;20068;-86
2021/04/13 01:01:00;;;;;;;11.82;6.10;;;;;;;0.74;94.58;102559.56;5049013;28;20045;-83
2021/04/13 01:03:30;;;;;;;11.07;6.35;;;;;;;0.82;94.50;102559.28;5015025;28;20099;-85
2021/04/13 01:05:58;;;;;;;;;;;;;;;0.78;94.54;102550.63;5049972;28;20045;-83
2021/04/13 01:08:37;;;;;;;8.65;6.20;;;;;;;0.73;95.13;102555.19;5052133;28;19920;-83
2021/04/13 01:11:14;;;;;;;10.13;5.55;;;;;;;0.73;95.16;102554.34;5034246;28;20048;-82
2021/04/13 01:13:49;;;;;;;12.05;5.45;;;;;;;0.73;95.65;102557.00;5048820;28;20060;-85
2021/04/13 01:16:18;;;;;;;11.18;4.75;;;;;;;0.76;95.46;102548.94;5030838;28;20041;-85
2021/04/13 01:18:50;;;;;;;9.75;5.45;;;;;;;0.79;95.37;102552.31;5035134;28;20090;-83
2021/04/13 01:21:42;;;;;;;12.73;5.47;;;;;;;0.81;95.71;102557.56;5025786;28;20055;-83
2021/04/13 01:24:12;;;;;;;10.18;6.30;;;;;;;0.85;95.17;102557.38;5047414;28;20059;-81
2021/04/13 01:26:45;;;;;;;9.60;5.53;;;;;;;0.82;95.41;102561.91;5033909;28;20041;-84
2021/04/13 01:29:13;;;;;;;7.95;5.18;;;;;;;0.82;95.64;102559.28;5027967;28;20123;-82
2021/04/13 01:34:13;;;;;;;10.73;6.05;;;;;;;0.83;95.70;102559.19;5052041;28;20120;-87
2021/04/13 01:36:43;;;;;;;12.77;5.40;;;;;;;0.87;95.36;102554.69;5042802;28;20048;-85
2021/04/13 01:39:17;;;;;;;11.27;6.00;;;;;;;0.82;95.80;102557.50;5035942;28;20041;-83
2021/04/13 01:44:20;;;;;;;8.18;5.45;;;;;;;0.80;95.95;102558.47;5051748;28;20040;-85
2021/04/13 01:46:46;;;;;;;10.30;5.88;;;;;;;0.84;96.29;102560.94;5051890;28;20067;-84
2021/04/13 01:49:12;;;;;;;11.15;5.68;;;;;;;0.80;96.56;102553.19;5017429;28;20490;-83
2021/04/13 01:51:37;;;;;;;11.43;4.95;;;;;;;0.79;96.65;102548.81;5042999;28;20054;-81
2021/04/13 01:54:07;;;;;;;9.02;4.97;;;;;;;0.78;96.32;102549.75;5030735;28;20465;-83
2021/04/13 01:56:51;;;;;;;11.05;4.50;;;;;;;0.74;97.01;102556.91;5042886;28;20037;-85
2021/04/13 01:59:26;;;;;;;7.68;3.83;;;;;;;0.74;97.35;102559.56;5052325;28;20048;-82
2021/04/13 02:01:58;;;;;;;9.98;4.63;;;;;;;0.76;97.52;102556.88;5047784;28;20091;-85
2021/04/13 02:04:30;;;;;;;11.43;5.20;;;;;;;0.82;97.18;102556.63;5016843;28;20051;-87
2021/04/13 02:07:19;;;;;;;9.15;4.65;;;;;;;0.83;97.42;102548.63;5033998;28;20049;-83
2021/04/13 02:09:59;;;;;;;12.35;5.32;;;;;;;0.87;97.31;102552.03;5016213;28;20049;-81
2021/04/13 02:12:30;;;;;;;9.05;4.78;;;;;;;0.87;97.81;102555.53;5050843;28;20076;-85
2021/04/13 02:15:03;;;;;;;10.75;5.40;;;;;;;0.91;96.93;102561.56;5056039;28;20155;-86
2021/04/13 02:17:36;;;;;;;8.48;4.90;;;;;;;0.87;97.27;102563.47;5033652;28;20480;-82
2021/04/13 02:20:06;;;;;;;8.02;5.00;;;;;;;0.84;97.80;102571.53;5054518;28;20056;-85
2021/04/13 02:22:32;;;;;;;8.25;4.60;;;;;;;0.85;97.77;102573.22;5020525;28;20033;-82
2021/04/13 02:25:03;;;;;;;11.18;5.30;;;;;;;0.93;97.61;102575.59;5050537;28;20044;-83
2021/04/13 02:27:30;;;;;;;10.60;5.18;;;;;;;0.92;98.16;102579.13;5028619;28;20052;-85
2021/04/13 02:30:09;;;;;;;12.32;4.80;;;;;;;0.93;97.37;102572.94;5025512;28;21329;-85
2021/04/13 02:32:39;;;;;;;9.65;4.88;;;;;;;0.94;97.71;102572.03;5050490;28;20357;-86
2021/04/13 02:35:14;;;;;;;12.38;5.80;;;;;;;0.96;97.82;102564.91;5059533;28;20032;-84
2021/04/13 02:38:06;;;;;;;9.73;5.75;;;;;;;0.91;98.06;102574.78;5034554;28;20109;-87
2021/04/13 02:41:04;;;;;;;11.27;5.22;;;;;;;0.96;97.99;102574.63;5004235;28;20049;-84
2021/04/13 02:43:39;;;;;;;9.30;4.90;;;;;;;0.95;98.39;102572.88;5034966;28;20041;-86
2021/04/13 02:46:09;;;;;;;7.70;4.53;;;;;;;0.93;98.65;102572.94;5030229;28;20056;-83
2021/04/13 02:48:46;;;;;;;10.30;4.90;;;;;;;0.94;98.37;102566.72;5050350;28;20044;-86
2021/04/13 02:51:14;;;;;;;12.40;6.10;;;;;;;0.98;98.02;102563.06;5009939;28;20592;-86
2021/04/13 02:53:49;;;;;;;12.70;6.18;;;;;;;0.95;97.84;102579.06;5029259;28;20095;-84
2021/04/13 02:56:24;;;;;;;9.80;5.38;;;;;;;0.93;98.35;102570.31;5047042;28;20037;-85
2021/04/13 02:59:04;;;;;;;10.95;5.60;;;;;;;0.96;98.85;102569.34;5032898;28;20398;-85
2021/04/13 03:01:33;;;;;;;10.55;6.60;;;;;;;0.99;98.28;102570.06;5010397;28;20038;-81
2021/04/13 03:04:05;;;;;;;11.23;6.13;;;;;;;1.00;98.52;102571.78;5033917;28;20041;-83
2021/04/13 03:06:35;;;;;;;14.32;5.93;;;;;;;0.98;98.70;102571.00;5032227;28;20041;-82
2021/04/13 03:09:03;;;;;;;10.10;5.97;;;;;;;1.02;98.78;102575.25;5029435;28;20046;-84
2021/04/13 03:11:29;;;;;;;10.88;5.30;;;;;;;1.05;98.58;102575.13;5035454;28;20083;-82
2021/04/13 03:13:55;;;;;;;13.45;6.53;;;;;;;1.11;97.96;102584.59;5045722;28;20446;-85
2021/04/13 03:16:35;;;;;;;10.95;5.93;;;;;;;1.10;98.15;102586.38;5017427;28;20064;-83
2021/04/13 03:19:01;;;;;;;12.50;6.00;;;;;;;1.08;98.33;102580.28;5030988;28;20084;-82
2021/04/13 03:21:33;;;;;;;11.13;5.55;;;;;;;1.03;98.92;102581.38;5018626;28;20041;-85
2021/04/13 03:24:02;;;;;;;11.05;5.55;;;;;;;1.06;98.64;102582.13;5044181;28;20094;-83
2021/04/13 03:26:32;;;;;;;13.43;5.80;;;;;;;1.02;98.62;102588.47;5034124;28;20080;-88
2021/04/13 03:29:03;;;;;;;9.52;5.57;;;;;;;0.98;99.58;102581.56;5022043;28;20072;-82
2021/04/13 03:31:34;;;;;;;12.02;5.55;;;;;;;0.96;98.95;102580.75;5024426;28;20045;-85
2021/04/13 03:34:04;;;;;;;8.38;5.70;;;;;;;0.98;98.75;102578.94;5031918;28;20571;-86
2021/04/13 03:36:31;;;;;;;9.68;5.43;;;;;;;0.94;98.70;102571.16;5045333;28;20045;-85
2021/04/13 03:39:13;;;;;;;13.15;6.43;;;;;;;0.90;98.77;102591.56;5050771;28;20049;-81
2021/04/13 03:41:45;;;;;;;13.48;5.95;;;;;;;0.91;98.91;102585.34;4997507;28;20048;-82
2021/04/13 03:44:10;;;;;;;11.95;6.03;;;;;;;0.88;98.86;102586.31;5051777;28;20040;-84
2021/04/13 03:46:38;;;;;;;12.80;5.65;;;;;;;0.83;99.51;102585.63;5047258;28;20037;-83
2021/04/13 03:49:10;;;;;;;14.63;6.05;;;;;;;0.79;99.82;102588.47;5032680;28;20048;-86
2021/04/13 03:51:41;;;;;;;11.00;6.00;;;;;;;0.85;99.37;102580.31;5023800;28;20116;-85
2021/04/13 03:54:36;;;;;;;13.38;6.03;;;;;;;0.69;100.00;102585.28;5041256;28;20049;-81
2021/04/13 03:57:04;;;;;;;11.90;6.55;;;;;;;0.72;99.86;102589.59;5043994;28;20041;-80
2021/04/13 03:59:37;;;;;;;11.13;7.20;;;;;;;0.73;100.00;102589.56;5028276;28;20041;-81
2021/04/13 04:02:05;;;;;;;13.13;6.53;;;;;;;0.69;100.00;102590.56;5036250;28;20116;-81
2021/04/13 04:04:33;;;;;;;14.23;7.78;;;;;;;0.66;100.00;102590.69;5042442;28;20379;-82
2021/04/13 04:07:27;;;;;;;12.93;8.32;;;;;;;0.64;100.00;102585.47;5051497;28;20045;-82
2021/04/13 04:09:52;;;;;;;13.00;7.78;;;;;;;0.61;100.00;102590.00;4995530;28;20096;-83
2021/04/13 04:12:20;;;;;;;11.18;6.70;;;;;;;0.52;100.00;102593.84;5021073;28;20037;-84
2021/04/13 04:15:03;;;;;;;14.23;6.45;;;;;;;0.48;100.00;102594.88;5048874;28;20048;-83
2021/04/13 04:17:32;;;;;;;12.82;7.25;;;;;;;0.47;100.00;102597.56;5008313;28;20057;-82
2021/04/13 04:20:07;;;;;;;15.63;7.78;;;;;;;0.47;100.00;102598.44;5014802;28;20515;-85
2021/04/13 04:22:35;;;;;;;14.68;8.02;;;;;;;0.54;100.00;102604.34;5015049;28;20048;-84
2021/04/13 04:25:22;;;;;;;15.37;7.57;;;;;;;0.45;100.00;102597.63;5027867;28;20036;-81
2021/04/13 04:27:53;;;;;;;17.65;9.20;;;;;;;0.49;100.00;102606.28;5032363;28;20044;-84
2021/04/13 04:30:28;;;;;;;17.33;8.82;;;;;;;0.43;100.00;102607.38;5050101;28;20049;-83
2021/04/13 04:32:55;;;;;;;15.00;9.18;;;;;;;0.40;100.00;102607.47;5032589;28;20044;-86
2021/04/13 04:35:43;;;;;;;18.48;8.50;;;;;;;0.36;100.00;102614.66;5048908;28;20516;-87
2021/04/13 04:38:27;;;;;;;16.95;8.93;;;;;;;0.37;100.00;102611.09;5053946;28;20049;-84
2021/04/13 04:40:56;;;;;;;14.50;8.43;;;;;;;0.39;100.00;102617.19;5034082;28;20131;-86
2021/04/13 04:44:04;;;;;;;18.23;7.35;;;;;;;0.36;100.00;102621.72;5048306;28;20029;-85
2021/04/13 04:46:36;;;;;;;16.38;8.98;;;;;;;0.39;100.00;102626.91;5040529;28;20079;-82
2021/04/13 04:49:13;;;;;;;13.00;8.50;;;;;;;0.34;100.00;102627.03;5025132;28;20053;-82
2021/04/13 04:51:39;;;;;;;17.08;7.85;;;;;;;0.40;100.00;102620.69;5029933;28;20671;-82
2021/04/13 04:54:06;;;;;;;18.33;7.97;;;;;;;0.41;100.00;102633.00;5047101;28;20045;-82
2021/04/13 04:56:31;;;;;;;17.70;9.57;;;;;;;0.49;100.00;102628.31;5034087;28;20105;-85
2021/04/13 04:58:58;;;;;;;15.93;8.23;;;;;;;0.43;100.00;102625.84;5047706;28;20033;-81
2021/04/13 05:01:24;;;;;;;16.75;7.63;;;;;;;0.41;100.00;102633.00;5048072;28;20059;-84
2021/04/13 05:03:50;;;;;;;17.10;9.40;;;;;;;0.45;100.00;102631.97;5033331;28;20060;-84
2021/04/13 05:06:19;;;;;;;15.88;8.90;;;;;;;0.41;100.00;102636.50;5040390;28;20045;-81
2021/04/13 05:08:44;;;;;;;15.88;7.57;;;;;;;0.40;100.00;102628.59;5047096;28;20033;-83
2021/04/13 05:11:10;;;;;;;17.05;10.00;;;;;;;0.47;100.00;102645.97;5025945;28;20405;-82
2021/04/13 05:13:35;;;;;;;16.10;7.75;;;;;;;0.42;100.00;102637.34;5055496;28;20045;-80
2021/04/13 05:16:03;;;;;;;13.82;8.38;;;;;;;0.38;100.00;102641.88;5026827;28;20124;-83
2021/04/13 05:18:28;;;;;;;15.63;8.55;;;;;;;0.41;100.00;102646.19;5046236;28;20056;-82
2021/04/13 05:20:54;;;;;;;17.35;9.40;;;;;;;0.43;100.00;102647.88;5052511;28;21143;-85
2021/04/13 05:23:21;;;;;;;14.27;9.43;;;;;;;0.48;100.00;102652.97;5041894;28;20085;-82
2021/04/13 05:25:47;;;;;;;15.07;8.57;;;;;;;0.47;100.00;102653.91;5030542;28;20127;-82
2021/04/13 05:28:13;;;;;;;18.83;8.55;;;;;;;0.44;100.00;102657.50;5026466;28;20905;-81
2021/04/13 05:30:40;;;;;;;21.60;10.23;;;;;;;0.48;100.00;102663.53;5040696;28;20466;-83
2021/04/13 05:33:07;;;;;;;12.95;7.80;;;;;;;0.43;100.00;102665.47;5020551;28;20051;-84
2021/04/13 05:35:32;;;;;;;16.38;9.13;;;;;;;0.51;100.00;102668.72;5035620;28;20160;-82
2021/04/13 05:38:04;;;;;;;17.00;8.35;;;;;;;0.53;100.00;102666.03;5036584;28;20124;-86
2021/04/13 05:40:32;;;;;;;17.30;8.05;;;;;;;0.56;100.00;102673.84;5046151;28;20076;-81
2021/04/13 05:42:59;;;;;;;17.15;8.05;;;;;;;0.58;100.00;102680.81;5015082;28;20063;-82
2021/04/13 05:45:27;;;;;;;18.40;7.38;;;;;;;0.61;100.00;102688.63;5050011;28;20043;-81
2021/04/13 05:47:53;;;;;;;12.75;7.25;;;;;;;0.63;100.00;102685.91;5043153;28;20048;-82
2021/04/13 05:50:31;;;;;;;17.40;7.32;;;;;;;0.65;100.00;102681.44;5032172;28;20048;-80
2021/04/13 05:52:56;;;;;;;17.48;7.88;;;;;;;0.73;100.00;102686.47;5028424;28;20481;-85
2021/04/13 05:55:22;;;;;;;15.48;7.18;;;;;;;0.77;100.00;102690.72;5033624;28;20047;-81
2021/04/13 05:57:51;;;;;;;13.20;7.88;;;;;;;0.82;100.00;102686.16;5028804;28;20068;-81
2021/04/13 06:00:18;;;;;;;12.68;6.18;;;;;;;0.90;100.00;102692.03;5043613;28;20049;-83
2021/04/13 06:02:45;;;;;;;17.35;7.68;;;;;;;1.00;100.00;102688.09;5043104;28;20132;-81
2021/04/13 06:05:14;;;;;;;15.23;7.28;;;;;;;1.11;100.00;102699.16;5025144;28;20037;-82
2021/04/13 06:07:39;;;;;;;18.48;7.75;;;;;;;1.17;100.00;102702.50;5028018;28;20049;-82
2021/04/13 06:10:06;;;;;;;13.63;5.35;;;;;;;1.23;100.00;102710.19;5013672;28;20045;-83
2021/04/13 06:12:32;;;;;;;14.00;4.85;;;;;;;1.27;100.00;102706.53;5021826;28;20040;-84
2021/04/13 06:14:57;;;;;;;14.73;6.07;;;;;;;1.28;100.00;102711.75;5035929;28;20066;-84
2021/04/13 06:17:23;;;;;;;13.63;5.85;;;;;;;1.31;99.71;102705.50;5029153;28;20111;-80
2021/04/13 06:19:48;;;;;;;13.60;6.13;;;;;;;1.29;99.92;102709.97;5049230;28;20460;-83
2021/04/13 06:22:13;;;;;;;11.45;5.60;;;;;;;1.35;99.22;102715.03;5026091;28;20033;-80
2021/04/13 06:24:39;;;;;;;12.13;6.00;;;;;;;1.38;99.69;102725.50;5048099;28;20448;-83
2021/04/13 06:27:05;;;;;;;14.27;5.93;;;;;;;1.48;98.98;102724.25;5045744;28;20124;-83
2021/04/13 06:29:33;;;;;;;17.92;5.80;;;;;;;1.55;98.59;102731.03;5016865;28;20037;-83
2021/04/13 06:31:59;;;;;;;12.60;5.78;;;;;;;1.62;98.37;102739.59;5014173;28;20045;-82
2021/04/13 06:34:24;;;;;;;11.20;5.50;;;;;;;1.68;98.51;102736.72;5025408;28;20109;-82
2021/04/13 06:36:52;;;;;;;13.93;5.40;;;;;;;1.77;97.85;102735.50;5036352;28;20494;-85
2021/04/13 06:39:17;;;;;;;15.38;5.30;;;;;;;1.84;97.72;102736.94;5035151;28;20037;-83
2021/04/13 06:41:43;;;;;;;14.85;5.45;;;;;;;1.89;96.81;102748.22;5031180;28;20048;-86
2021/04/13 06:44:41;;;;;;;11.32;5.38;;;;;;;1.94;96.51;102751.56;5030315;28;20037;-82
2021/04/13 06:47:06;;;;;;;10.77;5.30;;;;;;;2.00;96.27;102746.03;5033676;28;20051;-81
2021/04/13 06:50:03;;;;;;;11.98;4.95;;;;;;;2.03;96.51;102750.34;5029043;28;20275;-82
2021/04/13 06:52:31;;;;;;;15.00;5.07;;;;;;;2.15;96.32;102749.84;5023027;28;20493;-79
2021/04/13 06:55:06;;;;;;;15.93;4.00;;;;;;;2.28;96.09;102739.63;5045251;28;20500;-81
2021/04/13 06:57:40;;;;;;;13.93;4.63;;;;;;;2.37;95.62;102744.53;5046544;28;20029;-81
2021/04/13 07:00:24;;;;;;;12.55;4.75;;;;;;;2.52;95.29;102758.94;5019671;28;20041;-83
2021/04/13 07:03:04;;;;;;;11.18;4.53;;;;;;;2.61;94.35;102752.38;4997406;28;20120;-83
2021/04/13 07:05:35;;;;;;;8.95;3.60;;;;;;;2.76;94.24;102750.88;5045111;28;20048;-81
2021/04/13 07:08:33;;;;;;;12.25;4.13;;;;;;;2.90;93.72;102754.63;5016875;28;20037;-81
2021/04/13 07:11:04;;;;;;;12.90;3.88;;;;;;;3.03;92.42;102756.78;5020240;28;20045;-81
2021/04/13 07:14:13;;;;;;;8.82;3.75;;;;;;;3.14;92.47;102757.16;5041464;28;20072;-77
2021/04/13 07:16:45;;;;;;;10.65;4.88;;;;;;;3.18;92.43;102758.75;4975863;28;20374;-82
2021/04/13 07:19:22;;;;;;;10.80;3.92;;;;;;;3.25;93.18;102757.56;5052554;28;20106;-81
2021/04/13 07:21:50;;;;;;;7.43;3.30;;;;;;;3.39;92.02;102756.91;5046704;28;20128;-80
2021/04/13 07:24:50;;;;;;;13.00;3.97;;;;;;;3.34;91.94;102764.25;5039565;28;20084;-85
2021/04/13 07:27:21;;;;;;;11.38;4.45;;;;;;;3.35;91.75;102756.19;5050019;28;20045;-83
2021/04/13 07:30:11;;;;;;;11.57;4.57;;;;;;;3.38;91.28;102756.06;5046125;28;20045;-81
2021/04/13 07:32:38;;;;;;;10.77;3.75;;;;;;;3.41;90.95;102760.38;4993306;28;20043;-83
2021/04/13 07:35:09;;;;;;;8.52;3.75;;;;;;;3.44;91.42;102759.38;5014127;28;20091;-84
2021/04/13 07:37:47;;;;;;;10.93;4.57;;;;;;;3.49;91.32;102760.03;5050763;28;20048;-79
2021/04/13 07:40:42;;;;;;;10.37;4.00;;;;;;;3.55;90.75;102757.94;5029374;28;20067;-85
2021/04/13 07:43:11;;;;;;;12.75;3.70;;;;;;;3.65;91.15;102762.81;5032352;28;20040;-82
2021/04/13 07:46:03;;;;;;;9.02;3.45;;;;;;;3.71;90.53;102760.75;5045987;28;20094;-85
2021/04/13 07:48:49;;;;;;;14.25;3.83;;;;;;;3.77;90.17;102762.22;5035712;28;20390;-84
2021/04/13 07:51:39;;;;;;;7.40;2.42;;;;;;;3.87;89.80;102765.34;5028275;28;20501;-80
2021/04/13 07:54:35;;;;;;;9.30;3.45;;;;;;;3.96;89.87;102772.88;5043165;28;20086;-83
2021/04/13 07:57:14;;;;;;;12.15;2.78;;;;;;;4.09;89.96;102771.34;5033680;28;20501;-83
2021/04/13 08:00:00;;;;;;;11.70;3.08;;;;;;;4.29;89.16;102773.03;5028363;28;20087;-83
2021/04/13 08:02:26;;;;;;;10.20;2.40;;;;;;;4.42;87.68;102770.63;5026861;28;21126;-83
2021/04/13 08:04:54;;;;;;;13.70;4.18;;;;;;;4.58;86.96;102770.75;5038837;28;20076;-85
2021/04/13 08:07:59;;;;;;;10.45;2.60;;;;;;;4.65;85.28;102775.66;5029238;28;20051;-86
2021/04/13 08:10:27;;;;;;;7.80;2.30;;;;;;;4.82;85.09;102769.47;5028487;28;20063;-81
2021/04/13 08:13:02;;;;;;;9.70;3.05;;;;;;;4.91;84.13;102766.34;5047654;28;20136;-80
2021/04/13 08:15:48;;;;;;;10.48;2.85;;;;;;;4.94;84.08;102778.63;5048484;28;20052;-84
2021/04/13 08:18:34;;;;;;;8.57;2.50;;;;;;;5.16;84.58;102781.91;5053536;28;20029;-81
2021/04/13 08:21:37;;;;;;;14.13;3.33;;;;;;;5.41;84.27;102775.28;5030273;28;20073;-82
2021/04/13 08:24:03;;;;;;;7.80;2.03;;;;;;;5.51;82.06;102776.50;5013428;28;20033;-83
2021/04/13 08:26:41;;;;;;;11.65;2.35;;;;;;;5.43;80.16;102770.72;5029549;28;20517;-83
2021/04/13 08:29:14;;;;;;;9.38;1.92;;;;;;;5.35;80.81;102770.25;5026527;28;20052;-83
2021/04/13 08:35:37;;;;;;;10.13;2.33;;;;;;;5.31;80.37;102779.38;5031058;28;20040;-81
2021/04/13 08:38:25;;;;;;;10.43;2.13;;;;;;;5.29;78.12;102778.56;5004884;28;20041;-84
2021/04/13 08:41:10;;;;;;;7.20;1.77;;;;;;;5.25;78.50;102779.69;5026769;28;20037;-79
2021/04/13 08:43:44;;;;;;;9.70;2.20;;;;;;;5.29;78.87;102781.25;5021875;28;20715;-81
2021/04/13 08:46:41;;;;;;;6.90;2.13;;;;;;;5.46;76.92;102780.34;5041313;28;20438;-84
2021/04/13 08:49:21;;;;;;;9.20;2.13;;;;;;;5.68;76.86;102780.91;5039691;28;20033;-83
2021/04/13 08:51:56;;;;;;;10.10;1.40;;;;;;;5.77;73.95;102769.75;5043516;28;20057;-80
2021/04/13 08:54:24;;;;;;;8.00;2.15;;;;;;;5.88;73.52;102779.81;5007658;28;20428;-84
2021/04/13 08:57:00;;;;;;;7.63;1.60;;;;;;;5.89;73.69;102781.53;5027290;28;20416;-84
2021/04/13 08:59:44;;;;;;;5.90;1.65;;;;;;;5.96;73.41;102788.28;5046891;28;20084;-80
2021/04/13 09:02:23;;;;;;;10.52;1.80;;;;;;;6.05;73.38;102785.09;5045165;28;20041;-83
2021/04/13 09:05:01;;;;;;;5.35;1.27;;;;;;;5.95;70.29;102780.34;5042013;28;20607;-80
2021/04/13 09:07:40;;;;;;;5.38;1.10;;;;;;;6.02;70.38;102779.06;5048679;28;20482;-79
2021/04/13 09:10:37;;;;;;;5.75;1.10;;;;;;;5.96;67.80;102776.75;5045657;28;20599;-81
2021/04/13 09:13:27;;;;;;;5.50;1.05;;;;;;;6.16;67.94;102781.81;5012329;28;20170;-78
2021/04/13 09:16:17;;;;;;;7.88;1.30;;;;;;;6.29;68.99;102771.31;5022502;28;20036;-81
2021/04/13 09:18:46;;;;;;;6.78;1.15;;;;;;;6.21;66.02;102786.88;5024036;28;20037;-86
2021/04/13 09:21:33;;;;;;;7.47;1.30;;;;;;;6.21;68.22;102786.88;5032986;28;20053;-83
2021/04/13 09:24:09;;;;;;;5.53;1.02;;;;;;;6.31;68.13;102769.41;5026623;28;20045;-79
2021/04/13 09:26:43;;;;;;;4.78;1.25;;;;;;;6.31;66.82;102766.75;5043094;28;20044;-83
2021/04/13 09:29:31;;;;;;;4.47;1.20;;;;;;;6.51;68.52;102769.13;5040171;28;20069;-80
2021/04/13 09:31:57;;;;;;;4.63;0.90;;;;;;;6.53;64.07;102780.56;5018221;28;20396;-81
2021/04/13 09:35:03;;;;;;;3.42;1.35;;;;;;;6.59;63.59;102783.81;5010945;28;20129;-79
2021/04/13 09:37:53;;;;;;;3.78;1.05;;;;;;;6.61;65.00;102781.91;5042421;28;20047;-79
2021/04/13 09:40:53;;;;;;;4.82;1.00;;;;;;;6.70;64.68;102781.38;5024400;28;20505;-77
2021/04/13 09:43:37;;;;;;;5.57;1.10;;;;;;;6.79;64.23;102770.19;5044140;28;20040;-82
2021/04/13 09:46:10;;;;;;;3.92;0.88;;;;;;;6.82;60.99;102775.31;5027059;28;20044;-81
2021/04/13 09:48:52;;;;;;;3.22;0.95;;;;;;;6.81;62.90;102765.59;5038581;28;20033;-83
2021/04/13 09:51:40;;;;;;;3.72;1.10;;;;;;;6.94;62.91;102769.25;5043573;28;20094;-81
2021/04/13 09:54:16;;;;;;;4.57;1.48;;;;;;;6.96;62.09;102766.47;5040603;28;20039;-82
2021/04/13 09:57:06;;;;;;;9.43;1.67;;;;;;;6.96;63.36;102763.78;5004245;28;20044;-82
2021/04/13 10:00:05;;;;;;;8.15;1.30;;;;;;;7.02;64.14;102760.78;5045029;28;20060;-83
2021/04/13 10:03:08;;;;;;;4.10;1.25;;;;;;;6.94;61.04;102766.56;5026960;28;20052;-83
2021/04/13 10:05:37;;;;;;;6.63;1.00;;;;;;;7.05;60.34;102765.94;5043391;28;20136;-86
2021/04/13 10:08:10;;;;;;;4.55;0.88;;;;;;;7.09;59.17;102761.25;4994922;28;20033;-82
2021/04/13 10:10:38;;;;;;;2.55;0.88;;;;;;;7.23;62.38;102748.78;5043599;28;20045;-80
2021/04/13 10:13:10;;;;;;;5.22;1.05;;;;;;;7.37;63.17;102750.59;5043023;28;20041;-85
2021/04/13 10:15:57;;;;;;;3.80;1.38;;;;;;;7.35;57.80;102755.16;5012240;28;20052;-82
2021/04/13 10:18:57;;;;;;;4.43;1.20;;;;;;;7.39;60.85;102750.47;5044376;28;20057;-80
2021/04/13 10:21:56;;;;;;;6.35;1.10;;;;;;;7.58;61.28;102742.19;5044310;28;20064;-80
2021/04/13 10:24:53;;;;;;;3.50;1.05;;;;;;;7.58;60.00;102758.22;5023775;28;20436;-79
2021/04/13 10:27:43;;;;;;;2.83;1.10;;;;;;;7.75;58.87;102749.13;5043482;28;20040;-81
2021/04/13 10:30:26;;;;;;;5.93;1.02;;;;;;;7.79;60.70;102746.16;5028440;28;20516;-80
2021/04/13 10:33:23;;;;;;;5.95;0.80;;;;;;;7.75;58.95;102736.63;5010497;28;20489;-81
2021/04/13 10:36:19;;;;;;;5.93;1.10;;;;;;;7.78;60.48;102735.56;5027750;28;20099;-78
2021/04/13 10:38:47;;;;;;;6.05;1.25;;;;;;;7.81;60.41;102738.03;5014576;28;20402;-84
2021/04/13 10:41:28;;;;;;;4.80;1.27;;;;;;;7.82;60.18;102737.94;5049032;28;20041;-82
2021/04/13 10:44:05;;;;;;;6.40;1.02;;;;;;;7.91;57.29;102736.47;5028482;28;20044;-81
2021/04/13 10:46:48;;;;;;;4.57;0.85;;;;;;;8.04;57.13;102728.53;5044854;28;20067;-81
2021/04/13 10:49:41;;;;;;;2.85;0.90;;;;;;;8.03;57.60;102721.47;5046572;28;20060;-79
2021/04/13 10:52:31;;;;;;;5.05;1.13;;;;;;;8.17;57.55;102720.53;5043444;28;20041;-84
2021/04/13 10:55:10;;;;;;;4.15;1.10;;;;;;;8.38;58.58;102721.81;5044372;28;20071;-83
2021/04/13 10:58:13;;;;;;;4.37;1.10;;;;;;;8.22;57.19;102721.09;5043831;28;20446;-83
2021/04/13 11:01:20;;;;;;;3.30;1.00;;;;;;;8.05;56.55;102703.50;5004356;28;20803;-83
2021/04/13 11:04:02;;;;;;;4.47;1.08;;;;;;;8.25;54.49;102716.41;5015623;28;20067;-81
2021/04/13 11:07:05;;;;;;;3.17;1.20;;;;;;;8.39;53.85;102712.84;5026412;28;20580;-79
2021/04/13 11:10:02;;;;;;;4.78;1.20;;;;;;;8.41;54.96;102705.56;5043695;28;20131;-83
2021/04/13 11:12:53;;;;;;;3.70;0.90;;;;;;;8.70;57.28;102706.25;5042770;28;20049;-83
2021/04/13 11:15:53;;;;;;;5.57;1.00;;;;;;;8.63;56.56;102713.00;5040489;28;20105;-79
2021/04/13 11:18:39;;;;;;;5.57;1.05;;;;;;;8.54;53.79;102695.72;5044081;28;20136;-79
2021/04/13 11:21:16;;;;;;;3.13;0.80;;;;;;;8.54;52.90;102694.88;5028043;28;20071;-83
2021/04/13 11:24:12;;;;;;;3.75;0.70;;;;;;;8.56;50.88;102701.84;5022280;28;20053;-83
2021/04/13 11:27:15;;;;;;;3.60;0.90;;;;;;;8.52;53.37;102691.47;5024149;28;20051;-82
2021/04/13 11:30:02;;;;;;;4.65;0.95;;;;;;;8.64;56.41;102703.16;5016732;28;20041;-83
2021/04/13 11:33:05;;;;;;;3.67;0.73;;;;;;;8.85;53.34;102690.97;5021927;28;20063;-83
2021/04/13 11:35:39;;;;;;;3.42;1.20;;;;;;;8.58;51.16;102699.09;5046759;28;20060;-84
2021/04/13 11:38:37;;;;;;;3.20;0.88;;;;;;;8.36;54.29;102696.97;5040268;28;20044;-81
2021/04/13 11:41:27;;;;;;;4.03;1.00;;;;;;;8.27;53.70;102686.88;5016732;28;20052;-78
2021/04/13 11:44:18;;;;;;;2.80;0.75;;;;;;;8.22;52.82;102684.50;5025428;28;20052;-81
2021/04/13 11:47:06;;;;;;;6.38;1.10;;;;;;;8.39;53.26;102693.25;5039984;28;20037;-85
2021/04/13 11:49:50;;;;;;;2.40;0.77;;;;;;;8.44;52.79;102693.81;5048764;28;20512;-86
2021/04/13 11:52:25;;;;;;;3.63;1.40;;;;;;;8.54;53.99;102679.69;5040549;28;20056;-83
2021/04/13 11:54:55;;;;;;;5.38;0.90;;;;;;;8.75;53.37;102676.50;5030996;28;20044;-89
2021/04/13 11:57:52;;;;;;;3.03;0.77;;;;;;;8.90;52.79;102685.28;5025978;28;20066;-82
2021/04/13 12:00:19;;;;;;;4.07;1.20;;;;;;;8.90;51.63;102679.94;5049022;28;20053;-83
2021/04/13 12:02:59;;;;;;;5.40;1.83;;;;;;;9.16;51.96;102676.28;5029317;28;20045;-84
2021/04/13 12:05:32;;;;;;;3.53;1.10;;;;;;;9.05;52.03;102681.53;5038099;28;20053;-80
2021/04/13 12:08:02;;;;;;;4.00;1.15;;;;;;;9.02;49.70;102673.72;5045263;28;20075;-85
2021/04/13 12:10:30;;;;;;;4.50;1.40;;;;;;;9.06;48.66;102677.88;5024867;28;20057;-80
2021/04/13 12:12:58;;;;;;;4.85;1.42;;;;;;;9.40;52.38;102679.00;5047517;28;20048;-82
2021/04/13 12:15:23;;;;;;;4.70;1.00;;;;;;;9.69;51.98;102678.72;5032271;28;20044;-80
2021/04/13 12:18:21;;;;;;;5.32;1.33;;;;;;;9.59;50.22;102673.19;5031647;28;20049;-85
2021/04/13 12:20:48;;;;;;;1.75;0.80;;;;;;;9.50;49.21;102668.50;5004669;28;20049;-83